Time;durP1;ratioP1;P1;durP2;ratioP2;P2;SDS_P1;SDS_P2;PMS_P1;PMS_P2;Temp;Humidity;BMP_temperature;BMP_pressure;BME280_temperature;BME280_humidity;BME280_pressure;Samples;Min_cycle;Max_cycle;Signal;HPM_P1;HPM_P2
2023/09/20 00:02:20;;;;;;;3;1;;;;;;;15.46;88.3291;938.8102;;;;
2023/09/20 00:04:47;;;;;;;1.3;0.9;;;;;;;15.45;88.07129;938.7855;;;;
2023/09/20 00:07:10;;;;;;;1.2;0.9;;;;;;;15.5;87.71191;938.8307;;;;
2023/09/20 00:09:38;;;;;;;2.7;1.2;;;;;;;15.39;88.34863;938.7961;;;;
2023/09/20 00:12:02;;;;;;;1.6;0.9;;;;;;;15.42;88.70215;938.8162;;;;
2023/09/20 00:14:29;;;;;;;0.9;0.9;;;;;;;15.45;88.07129;938.7734;;;;
2023/09/20 00:16:52;;;;;;;1.7;0.9;;;;;;;15.42;88.18262;938.7495;;;;
2023/09/20 00:19:19;;;;;;;1.1;1;;;;;;;15.38;88.32227;938.7866;;;;
2023/09/20 00:21:44;;;;;;;0.9;0.8;;;;;;;15.33;88.61328;938.7612;;;;
2023/09/20 00:24:09;;;;;;;1.1;0.8;;;;;;;15.26;88.96973;938.8212;;;;
2023/09/20 00:26:37;;;;;;;3;0.9;;;;;;;15.27;89.20215;938.7658;;;;
2023/09/20 00:29:04;;;;;;;2.2;1;;;;;;;15.33;88.65918;938.6827;;;;
2023/09/20 00:31:26;;;;;;;2.8;0.9;;;;;;;15.34;88.61621;938.7001;;;;
2023/09/20 00:33:52;;;;;;;1.5;0.8;;;;;;;15.27;88.77539;938.6454;;;;
2023/09/20 00:36:17;;;;;;;1;0.9;;;;;;;15.21;89.65137;938.7219;;;;
2023/09/20 00:38:47;;;;;;;1;0.9;;;;;;;15.31;89.25586;938.6747;;;;
2023/09/20 00:41:11;;;;;;;0.7;0.7;;;;;;;15.3;89.18262;938.6685;;;;
2023/09/20 00:43:36;;;;;;;0.9;0.8;;;;;;;15.26;89.35059;938.615;;;;
2023/09/20 00:46:02;;;;;;;1.6;0.8;;;;;;;15.25;89.53125;938.5798;;;;
2023/09/20 00:48:29;;;;;;;3.3;0.9;;;;;;;15.22;89.80273;938.5656;;;;
2023/09/20 00:50:53;;;;;;;1.2;0.8;;;;;;;15.26;89.72949;938.5059;;;;
2023/09/20 00:53:20;;;;;;;0.8;0.8;;;;;;;15.26;89.54688;938.4272;;;;
2023/09/20 00:55:45;;;;;;;0.9;0.8;;;;;;;15.03;90.64063;938.4633;;;;
2023/09/20 00:58:12;;;;;;;1.1;1;;;;;;;15.06;90.54199;938.4863;;;;
2023/09/20 01:00:40;;;;;;;3.1;1;;;;;;;15.1;90.2041;938.4941;;;;
2023/09/20 01:03:01;;;;;;;0.9;0.9;;;;;;;15.03;90.70996;938.4802;;;;
2023/09/20 01:05:27;;;;;;;2.3;0.7;;;;;;;14.82;91.62207;938.5126;;;;
2023/09/20 01:07:51;;;;;;;3.2;0.9;;;;;;;14.78;92.1123;938.4588;;;;
2023/09/20 01:10:18;;;;;;;1.9;1.1;;;;;;;14.66;92.91504;938.5117;;;;
2023/09/20 01:12:43;;;;;;;0.8;0.8;;;;;;;14.66;93.39941;938.454;;;;
2023/09/20 01:15:10;;;;;;;1.2;0.7;;;;;;;14.75;92.95996;938.4509;;;;
2023/09/20 01:17:35;;;;;;;1.2;1;;;;;;;14.89;91.94824;938.4448;;;;
2023/09/20 01:20:03;;;;;;;1.1;1;;;;;;;14.96;91.28516;938.3761;;;;
2023/09/20 01:22:26;;;;;;;2.3;1.1;;;;;;;15;91.06152;938.3622;;;;
2023/09/20 01:24:53;;;;;;;1.4;0.9;;;;;;;15;90.79492;938.302;;;;
2023/09/20 01:27:17;;;;;;;2.1;0.9;;;;;;;14.76;92.06055;938.3251;;;;
2023/09/20 01:29:43;;;;;;;1.1;1.1;;;;;;;14.79;92.28516;938.2751;;;;
2023/09/20 01:32:09;;;;;;;1.3;1.1;;;;;;;14.89;91.69434;938.3181;;;;
2023/09/20 01:34:34;;;;;;;0.8;0.8;;;;;;;14.88;91.57715;938.3918;;;;
2023/09/20 01:37:03;;;;;;;1.3;0.9;;;;;;;14.84;91.55859;938.3265;;;;
2023/09/20 01:39:27;;;;;;;0.8;0.8;;;;;;;14.83;91.55859;938.3056;;;;
2023/09/20 01:41:52;;;;;;;0.8;0.7;;;;;;;14.85;91.52344;938.3095;;;;
2023/09/20 01:44:17;;;;;;;1.1;1;;;;;;;14.92;91.03125;938.3741;;;;
2023/09/20 01:46:43;;;;;;;1.6;0.8;;;;;;;14.95;91.06055;938.2905;;;;
2023/09/20 01:49:08;;;;;;;0.9;0.9;;;;;;;15.04;90.36523;938.2715;;;;
2023/09/20 01:51:34;;;;;;;1.7;1;;;;;;;14.96;90.66211;938.3256;;;;
2023/09/20 01:53:59;;;;;;;1.5;1.1;;;;;;;14.86;91.00879;938.291;;;;
2023/09/20 01:56:26;;;;;;;1.3;0.6;;;;;;;14.56;92.68652;938.278;;;;
2023/09/20 01:58:51;;;;;;;1.7;0.8;;;;;;;14.52;93.27637;938.2822;;;;
2023/09/20 02:01:18;;;;;;;1.1;1;;;;;;;14.56;93.25098;938.1434;;;;
2023/09/20 02:03:42;;;;;;;0.9;0.9;;;;;;;14.59;92.96875;938.1777;;;;
2023/09/20 02:06:08;;;;;;;0.8;0.8;;;;;;;14.57;93.0459;938.1337;;;;
2023/09/20 02:08:34;;;;;;;0.7;0.7;;;;;;;14.54;93.07422;938.1883;;;;
2023/09/20 02:10:59;;;;;;;1.8;1.1;;;;;;;14.64;92.61035;938.176;;;;
2023/09/20 02:13:24;;;;;;;0.8;0.8;;;;;;;14.68;92.6084;938.1926;;;;
2023/09/20 02:15:52;;;;;;;1.7;1.2;;;;;;;14.63;92.35645;938.1816;;;;
2023/09/20 02:18:16;;;;;;;1.2;0.9;;;;;;;14.69;92.13867;938.2238;;;;
2023/09/20 02:20:41;;;;;;;3;1.3;;;;;;;14.85;91.36426;938.2278;;;;
2023/09/20 02:23:07;;;;;;;1.3;1;;;;;;;15;90.37012;938.1256;;;;
2023/09/20 02:25:31;;;;;;;1.3;1.1;;;;;;;14.93;90.67578;938.1125;;;;
2023/09/20 02:27:57;;;;;;;1.8;0.9;;;;;;;14.83;90.72852;938.0555;;;;
2023/09/20 02:30:24;;;;;;;0.9;0.9;;;;;;;14.78;90.58789;938.0259;;;;
2023/09/20 02:32:50;;;;;;;0.9;0.9;;;;;;;14.72;91.12988;938.0608;;;;
2023/09/20 02:35:12;;;;;;;2.1;0.8;;;;;;;14.67;91.58984;937.9891;;;;
2023/09/20 02:37:38;;;;;;;0.8;0.8;;;;;;;14.76;90.86133;937.9315;;;;
2023/09/20 02:40:07;;;;;;;2.1;1.1;;;;;;;14.73;90.86719;937.9791;;;;
2023/09/20 02:42:28;;;;;;;1.7;1.3;;;;;;;14.7;91.24219;937.8942;;;;
2023/09/20 02:44:54;;;;;;;1.3;1.1;;;;;;;14.69;91.23828;937.924;;;;
2023/09/20 02:47:19;;;;;;;1.4;1;;;;;;;14.83;89.89648;937.8022;;;;
2023/09/20 02:49:48;;;;;;;1;0.8;;;;;;;14.89;89.5498;937.8571;;;;
2023/09/20 02:52:11;;;;;;;1.7;1;;;;;;;14.84;89.875;937.863;;;;
2023/09/20 02:54:37;;;;;;;0.8;0.7;;;;;;;14.85;90.01367;937.9208;;;;
2023/09/20 02:57:03;;;;;;;1.6;0.8;;;;;;;14.72;90.81934;937.7731;;;;
2023/09/20 02:59:30;;;;;;;1.3;1;;;;;;;14.55;91.66895;937.7965;;;;
2023/09/20 03:01:55;;;;;;;1.3;1.2;;;;;;;14.57;91.85742;937.7434;;;;
2023/09/20 03:04:26;;;;;;;1.5;0.9;;;;;;;14.45;92.59473;937.7522;;;;
2023/09/20 03:06:51;;;;;;;2.5;1;;;;;;;14.36;92.88672;937.7609;;;;
2023/09/20 03:09:23;;;;;;;0.9;0.9;;;;;;;14.31;93.68262;937.7341;;;;
2023/09/20 03:11:45;;;;;;;2.4;1;;;;;;;14.43;92.33691;937.7456;;;;
2023/09/20 03:14:16;;;;;;;1;0.9;;;;;;;14.36;92.36816;937.785;;;;
2023/09/20 03:16:47;;;;;;;1.9;1.1;;;;;;;14.37;92.42773;937.7216;;;;
2023/09/20 03:19:20;;;;;;;1.2;1;;;;;;;14.29;92.5625;937.7389;;;;
2023/09/20 03:21:48;;;;;;;2.8;1.2;;;;;;;14.05;93.98145;937.7695;;;;
2023/09/20 03:24:13;;;;;;;1.3;0.8;;;;;;;13.9;95.1123;937.7234;;;;
2023/09/20 03:26:39;;;;;;;1.9;0.9;;;;;;;13.79;95.67578;937.6948;;;;
2023/09/20 03:29:12;;;;;;;1.6;0.8;;;;;;;13.75;95.68652;937.6574;;;;
2023/09/20 03:31:42;;;;;;;1.1;0.9;;;;;;;13.81;95.72559;937.6316;;;;
2023/09/20 03:34:11;;;;;;;1;0.8;;;;;;;13.89;94.89258;937.7139;;;;
2023/09/20 03:36:38;;;;;;;1.2;1.1;;;;;;;13.93;95.06152;937.6657;;;;
2023/09/20 03:39:11;;;;;;;1.2;0.8;;;;;;;13.98;94.71387;937.6919;;;;
2023/09/20 03:41:38;;;;;;;1.3;0.9;;;;;;;14.03;94.35547;937.6103;;;;
2023/09/20 03:44:03;;;;;;;1.7;0.9;;;;;;;14.06;94.1123;937.6983;;;;
2023/09/20 03:46:29;;;;;;;1.2;1;;;;;;;14.21;92.86328;937.5958;;;;
2023/09/20 03:48:54;;;;;;;2.3;1.1;;;;;;;14.27;91.96875;937.6398;;;;
2023/09/20 03:51:19;;;;;;;1.6;1;;;;;;;14.26;92.27637;937.5605;;;;
2023/09/20 03:53:49;;;;;;;0.8;0.8;;;;;;;14.13;92.73242;937.6386;;;;
2023/09/20 03:56:14;;;;;;;3;1;;;;;;;14.14;93.08203;937.6298;;;;
2023/09/20 03:58:39;;;;;;;2;1.2;;;;;;;14.11;93.05176;937.6516;;;;
2023/09/20 04:02:41;;;;;;;1.9;0.9;;;;;;;13.97;93.0459;937.6647;;;;
2023/09/20 04:05:13;;;;;;;1;1;;;;;;;13.72;94.77441;937.5999;;;;
2023/09/20 04:07:36;;;;;;;2;1.2;;;;;;;13.56;95.41895;937.6322;;;;
2023/09/20 04:10:03;;;;;;;1.8;1.3;;;;;;;13.5;95.875;937.6603;;;;
2023/09/20 04:12:28;;;;;;;1.6;1;;;;;;;13.4;96.46387;937.6867;;;;
2023/09/20 04:14:57;;;;;;;1.7;1.3;;;;;;;13.39;97.0459;937.6731;;;;
2023/09/20 04:17:25;;;;;;;1.5;1;;;;;;;13.15;99.52051;937.6826;;;;
2023/09/20 04:19:51;;;;;;;0.8;0.8;;;;;;;13.17;100;937.6898;;;;
2023/09/20 04:22:19;;;;;;;2.6;0.9;;;;;;;13.26;99.5459;937.6758;;;;
2023/09/20 04:24:45;;;;;;;1.3;1;;;;;;;13.17;99.84473;937.6578;;;;
2023/09/20 04:27:10;;;;;;;1.6;1.3;;;;;;;13.21;99.11035;937.6462;;;;
2023/09/20 04:29:39;;;;;;;1.2;1;;;;;;;13.23;98.89648;937.5903;;;;
2023/09/20 04:32:06;;;;;;;1.2;1;;;;;;;13.22;98.74512;937.5439;;;;
2023/09/20 04:34:32;;;;;;;1.3;1;;;;;;;13.19;98.47266;937.5413;;;;
2023/09/20 04:36:57;;;;;;;1.5;1.1;;;;;;;12.96;99.64941;937.5226;;;;
2023/09/20 04:39:24;;;;;;;1.3;1;;;;;;;12.7;100;937.5178;;;;
2023/09/20 04:41:47;;;;;;;1.7;1.1;;;;;;;12.77;100;937.5057;;;;
2023/09/20 04:44:16;;;;;;;2;1.1;;;;;;;12.87;100;937.4964;;;;
2023/09/20 04:46:41;;;;;;;1.2;1.1;;;;;;;12.8;100;937.4561;;;;
2023/09/20 04:49:08;;;;;;;2;1.2;;;;;;;12.8;100;937.4386;;;;
2023/09/20 04:51:33;;;;;;;3.2;2.3;;;;;;;12.71;100;937.4266;;;;
2023/09/20 04:53:58;;;;;;;3.1;2.8;;;;;;;12.89;100;937.5147;;;;
2023/09/20 04:56:31;;;;;;;1.4;1.3;;;;;;;12.98;100;937.5242;;;;
2023/09/20 04:59:04;;;;;;;3.1;1.7;;;;;;;13.05;99.75098;937.5148;;;;
2023/09/20 05:01:25;;;;;;;1.7;1.4;;;;;;;13.07;99.22656;937.4692;;;;
2023/09/20 05:03:55;;;;;;;3.1;1.6;;;;;;;13.06;98.99512;937.4669;;;;
2023/09/20 05:06:22;;;;;;;1.5;1.4;;;;;;;13.06;99.16699;937.5084;;;;
2023/09/20 05:08:50;;;;;;;1.7;1.4;;;;;;;13.02;98.92969;937.5381;;;;
2023/09/20 05:11:13;;;;;;;1.7;1.1;;;;;;;12.92;99.41211;937.5491;;;;
2023/09/20 05:13:41;;;;;;;1.7;1.5;;;;;;;12.8;99.8877;937.5048;;;;
2023/09/20 05:16:06;;;;;;;2.3;1.3;;;;;;;12.66;100;937.4994;;;;
2023/09/20 05:18:34;;;;;;;2.9;1.5;;;;;;;12.61;100;937.483;;;;
2023/09/20 05:20:59;;;;;;;1.8;1.5;;;;;;;12.47;100;937.5109;;;;
2023/09/20 05:23:27;;;;;;;1.9;1.5;;;;;;;12.39;100;937.6055;;;;
2023/09/20 05:25:52;;;;;;;2.1;1.4;;;;;;;12.46;100;937.5892;;;;
2023/09/20 05:28:21;;;;;;;2.4;1.4;;;;;;;12.59;100;937.5884;;;;
2023/09/20 05:30:53;;;;;;;2.6;1.4;;;;;;;12.74;100;937.6367;;;;
2023/09/20 05:33:23;;;;;;;1.5;1.2;;;;;;;12.74;100;937.5705;;;;
2023/09/20 05:35:48;;;;;;;1.8;1.4;;;;;;;12.87;100;937.6322;;;;
2023/09/20 05:38:17;;;;;;;2.2;1.4;;;;;;;12.94;99.62305;937.5722;;;;
2023/09/20 05:40:43;;;;;;;2;1.3;;;;;;;12.95;99.58984;937.5195;;;;
2023/09/20 05:43:09;;;;;;;2.8;2;;;;;;;13.24;100;937.4935;;;;
2023/09/20 05:45:34;;;;;;;3.4;1.6;;;;;;;13.68;99.62012;937.5248;;;;
2023/09/20 05:48:01;;;;;;;1.6;1;;;;;;;14.03;95.47363;937.5455;;;;
2023/09/20 05:50:33;;;;;;;1.4;1.3;;;;;;;14.47;93.3584;937.5598;;;;
2023/09/20 05:52:49;;;;;;;1.9;1;;;;;;;14.83;89.90723;937.4984;;;;
2023/09/20 05:55:18;;;;;;;2.1;1;;;;;;;15.38;87.2959;937.4722;;;;
2023/09/20 05:57:42;;;;;;;2.1;0.9;;;;;;;15.71;85.14258;937.4383;;;;
2023/09/20 06:00:16;;;;;;;1.2;1;;;;;;;15.66;84.30078;937.5167;;;;
2023/09/20 06:02:35;;;;;;;1.2;1;;;;;;;15.73;84.12988;937.4629;;;;
2023/09/20 06:05:02;;;;;;;1.4;0.9;;;;;;;15.89;83.6748;937.4484;;;;
2023/09/20 06:07:33;;;;;;;2.4;0.9;;;;;;;16.04;83.19434;937.4451;;;;
2023/09/20 06:09:58;;;;;;;3.1;1.1;;;;;;;16.16;83.12598;937.3737;;;;
2023/09/20 06:12:23;;;;;;;3.1;1;;;;;;;16.35;82.55957;937.3987;;;;
2023/09/20 06:14:53;;;;;;;1.4;0.9;;;;;;;16.47;81.2627;937.4431;;;;
2023/09/20 06:17:18;;;;;;;1.2;1;;;;;;;16.81;81.13867;937.408;;;;
2023/09/20 06:19:42;;;;;;;2.2;1.2;;;;;;;16.6;80.09473;937.4636;;;;
2023/09/20 06:22:09;;;;;;;1.5;0.8;;;;;;;16.79;80.33984;937.4927;;;;
2023/09/20 06:24:35;;;;;;;1.4;0.8;;;;;;;16.82;79.97363;937.4386;;;;
2023/09/20 06:27:01;;;;;;;1.1;0.9;;;;;;;16.73;80.05078;937.3882;;;;
2023/09/20 06:30:51;;;;;;;1.6;1;;;;;;;16.51;81.84766;937.3975;;;;
2023/09/20 06:33:16;;;;;;;2.3;1;;;;;;;16.19;82.8877;937.3396;;;;
2023/09/20 06:35:43;;;;;;;1;0.9;;;;;;;16.14;84.16309;937.2977;;;;
2023/09/20 06:38:07;;;;;;;1.2;0.9;;;;;;;16.14;84.1748;937.276;;;;
2023/09/20 06:40:38;;;;;;;1;0.9;;;;;;;15.98;85.20898;937.1525;;;;
2023/09/20 06:43:00;;;;;;;2.9;0.9;;;;;;;16.02;85.93262;937.125;;;;
2023/09/20 06:45:27;;;;;;;1.9;0.8;;;;;;;16.04;85.77441;937.0026;;;;
2023/09/20 06:47:51;;;;;;;1.5;1.4;;;;;;;15.97;86.46582;937.033;;;;
2023/09/20 06:50:17;;;;;;;1.2;0.9;;;;;;;16.02;86.11621;937.0492;;;;
2023/09/20 06:52:45;;;;;;;1.1;0.9;;;;;;;15.99;86.20313;937.0416;;;;
2023/09/20 06:55:11;;;;;;;1.4;1;;;;;;;16.18;86.42578;936.9469;;;;
2023/09/20 06:57:32;;;;;;;1;0.7;;;;;;;16.39;85.35742;936.8814;;;;
2023/09/20 07:00:15;;;;;;;1.2;0.9;;;;;;;16.76;84.07227;936.9753;;;;
2023/09/20 07:02:28;;;;;;;1.4;0.8;;;;;;;17.17;82.38965;937.0034;;;;
2023/09/20 07:04:55;;;;;;;1.6;1;;;;;;;17.38;81.07227;936.9669;;;;
2023/09/20 07:07:22;;;;;;;1.2;0.9;;;;;;;17.67;79.94141;936.8967;;;;
2023/09/20 07:09:47;;;;;;;1;0.8;;;;;;;18.19;77.6084;936.9131;;;;
2023/09/20 07:12:15;;;;;;;1.3;0.8;;;;;;;18.11;77.24414;936.8312;;;;
2023/09/20 07:14:41;;;;;;;0.9;0.8;;;;;;;18.75;76.04297;936.7126;;;;
2023/09/20 07:17:07;;;;;;;1.1;0.8;;;;;;;19.42;72.08008;936.7562;;;;
2023/09/20 07:19:35;;;;;;;1.3;0.7;;;;;;;20.13;69.56934;936.5895;;;;
2023/09/20 07:21:57;;;;;;;4;0.9;;;;;;;21.08;67.49805;936.6555;;;;
2023/09/20 07:24:24;;;;;;;0.7;0.7;;;;;;;21.65;64.0127;936.5365;;;;
2023/09/20 07:26:51;;;;;;;1.8;0.7;;;;;;;22.5;61.8252;936.505;;;;
2023/09/20 07:29:15;;;;;;;2.2;0.9;;;;;;;21.85;63.17383;936.502;;;;
2023/09/20 07:31:42;;;;;;;2.3;1.2;;;;;;;21.49;64.60938;936.4691;;;;
2023/09/20 07:34:08;;;;;;;6.5;2.2;;;;;;;21.37;64.34668;936.4526;;;;
2023/09/20 07:36:33;;;;;;;1.8;1.1;;;;;;;20.67;65.51953;936.4718;;;;
2023/09/20 07:39:00;;;;;;;0.8;0.7;;;;;;;21.04;65.67969;936.3847;;;;
2023/09/20 07:41:25;;;;;;;1.1;0.7;;;;;;;21.13;65.08301;936.4295;;;;
2023/09/20 07:43:53;;;;;;;2.4;0.9;;;;;;;21.6;62.85742;936.4222;;;;
2023/09/20 07:46:20;;;;;;;0.8;0.8;;;;;;;22.27;60.04395;936.2852;;;;
2023/09/20 07:48:47;;;;;;;3.6;0.8;;;;;;;22;61.06152;936.3439;;;;
2023/09/20 07:51:11;;;;;;;1;0.9;;;;;;;22.41;61.30566;936.2902;;;;
2023/09/20 07:53:41;;;;;;;0.8;0.6;;;;;;;22.52;59.19727;936.2665;;;;
2023/09/20 07:56:13;;;;;;;1.5;1;;;;;;;21.6;63.17285;936.3364;;;;
2023/09/20 07:58:40;;;;;;;1.8;0.9;;;;;;;21.88;63.28516;936.2957;;;;
2023/09/20 08:01:02;;;;;;;0.7;0.7;;;;;;;21.34;63.38184;936.3314;;;;
2023/09/20 08:03:32;;;;;;;1.2;0.8;;;;;;;21.27;64.81152;936.269;;;;
2023/09/20 08:05:56;;;;;;;1.1;0.8;;;;;;;22.38;64.02441;936.2102;;;;
2023/09/20 08:08:23;;;;;;;2.1;1;;;;;;;22.72;60.78516;936.1907;;;;
2023/09/20 08:10:48;;;;;;;1.2;0.8;;;;;;;22.43;62.84668;936.2123;;;;
2023/09/20 08:13:17;;;;;;;1.1;0.6;;;;;;;22.71;62.33496;936.2566;;;;
2023/09/20 08:15:44;;;;;;;0.9;0.9;;;;;;;22.23;61.97461;936.2661;;;;
2023/09/20 08:20:38;;;;;;;1.7;0.7;;;;;;;22.29;62.04102;936.259;;;;
2023/09/20 08:59:53;;;;;;;1.2;0.7;;;;;;;24.07;58.05078;936.0393;;;;
2023/09/20 09:01:59;;;;;;;0.8;0.8;;;;;;;24.5;58.35352;936.0151;;;;
2023/09/20 09:04:25;;;;;;;1;0.9;;;;;;;24.4;57.02051;935.952;;;;
2023/09/20 09:06:50;;;;;;;1.1;1;;;;;;;24.24;57.20117;935.8616;;;;
2023/09/20 09:09:15;;;;;;;1.7;0.7;;;;;;;24.23;57.34082;935.9077;;;;
2023/09/20 09:11:40;;;;;;;1.8;0.6;;;;;;;24.46;56.87598;935.9256;;;;
2023/09/20 09:14:05;;;;;;;1.2;0.7;;;;;;;24.34;57.03711;935.897;;;;
2023/09/20 09:16:30;;;;;;;0.6;0.6;;;;;;;24.54;54.62207;935.8722;;;;
2023/09/20 09:18:55;;;;;;;1.2;0.7;;;;;;;24.44;54.26855;935.879;;;;
2023/09/20 09:21:20;;;;;;;0.8;0.8;;;;;;;23.91;55.41602;935.7836;;;;
2023/09/20 09:23:46;;;;;;;0.9;0.9;;;;;;;23.93;58.59766;935.7916;;;;
2023/09/20 09:26:10;;;;;;;1.1;0.8;;;;;;;23.84;58.71387;935.7546;;;;
2023/09/20 09:28:36;;;;;;;0.9;0.9;;;;;;;24;58.59473;935.6976;;;;
2023/09/20 09:31:05;;;;;;;1.7;0.7;;;;;;;23.95;57.62305;935.6071;;;;
2023/09/20 09:33:29;;;;;;;0.9;0.7;;;;;;;23.75;55.59668;935.597;;;;
2023/09/20 09:35:54;;;;;;;0.9;0.9;;;;;;;23.61;55.36816;935.5454;;;;
2023/09/20 09:38:20;;;;;;;0.6;0.6;;;;;;;23.86;54.84473;935.5146;;;;
2023/09/20 09:40:49;;;;;;;0.8;0.8;;;;;;;23.92;52.94629;935.5148;;;;
2023/09/20 09:43:15;;;;;;;0.9;0.9;;;;;;;24.06;53.18652;935.4498;;;;
2023/09/20 09:45:42;;;;;;;0.9;0.7;;;;;;;24.23;56.2207;935.4193;;;;
2023/09/20 09:48:06;;;;;;;1.1;0.9;;;;;;;24.07;55.40137;935.3836;;;;
2023/09/20 09:50:34;;;;;;;0.6;0.6;;;;;;;24;54.87402;935.3463;;;;
2023/09/20 09:52:59;;;;;;;2.5;0.7;;;;;;;24.2;55.38281;935.2757;;;;
2023/09/20 09:55:24;;;;;;;2.2;0.9;;;;;;;24.32;54.88965;935.2325;;;;
2023/09/20 09:57:50;;;;;;;0.7;0.7;;;;;;;24.34;55.06934;935.2159;;;;
2023/09/20 10:00:16;;;;;;;3.5;0.9;;;;;;;24.45;53.45605;935.187;;;;
2023/09/20 10:02:49;;;;;;;1.1;0.8;;;;;;;24.61;52.91016;935.0838;;;;
2023/09/20 10:05:11;;;;;;;1.8;1;;;;;;;25.31;51.91797;935.0831;;;;
2023/09/20 10:07:37;;;;;;;0.7;0.7;;;;;;;25.13;51.84961;935.0772;;;;
2023/09/20 10:10:02;;;;;;;0.8;0.8;;;;;;;25.31;50.07715;935.0167;;;;
2023/09/20 10:12:28;;;;;;;1.2;0.7;;;;;;;25.69;49.74121;934.9394;;;;
2023/09/20 10:14:53;;;;;;;1.4;0.7;;;;;;;25.95;48.84668;934.9531;;;;
2023/09/20 10:17:20;;;;;;;1;0.9;;;;;;;25.69;50.79199;934.9094;;;;
2023/09/20 10:19:44;;;;;;;0.7;0.6;;;;;;;25.78;49.96289;934.8954;;;;
2023/09/20 10:22:10;;;;;;;0.9;0.9;;;;;;;25.48;49.15137;934.8978;;;;
2023/09/20 10:24:34;;;;;;;0.8;0.8;;;;;;;26.08;49.35742;934.8272;;;;
2023/09/20 10:27:02;;;;;;;0.7;0.7;;;;;;;25.76;47.24219;934.7841;;;;
2023/09/20 10:29:25;;;;;;;1.6;0.9;;;;;;;26;47.98926;934.7587;;;;
2023/09/20 10:31:49;;;;;;;0.9;0.8;;;;;;;26.31;49.14551;934.7502;;;;
2023/09/20 10:34:15;;;;;;;0.9;0.7;;;;;;;26.76;46.06934;934.7164;;;;
2023/09/20 10:36:40;;;;;;;1.8;0.8;;;;;;;26.63;52.69922;934.6359;;;;
2023/09/20 10:39:08;;;;;;;1;0.9;;;;;;;26.28;54.68164;934.6691;;;;
2023/09/20 10:41:33;;;;;;;1.4;0.9;;;;;;;26.27;53.91113;934.682;;;;
2023/09/20 10:43:59;;;;;;;1.1;0.8;;;;;;;25.91;55.31055;934.6911;;;;
2023/09/20 10:46:24;;;;;;;1.5;0.9;;;;;;;26.91;50.82422;934.6727;;;;
2023/09/20 10:48:52;;;;;;;1.6;1;;;;;;;27.33;50.63477;934.645;;;;
2023/09/20 10:51:14;;;;;;;0.8;0.8;;;;;;;27.06;52.1582;934.5997;;;;
2023/09/20 10:53:39;;;;;;;1;0.9;;;;;;;26.65;52.83203;934.6756;;;;
2023/09/20 10:56:05;;;;;;;1.7;0.9;;;;;;;26.65;53.29395;934.6379;;;;
2023/09/20 10:58:29;;;;;;;0.9;0.9;;;;;;;26.9;52.28125;934.6437;;;;
2023/09/20 11:00:54;;;;;;;1.5;0.9;;;;;;;26.91;54.03516;934.6118;;;;
2023/09/20 11:03:22;;;;;;;1.2;1.1;;;;;;;26.91;53.3125;934.5906;;;;
2023/09/20 11:05:45;;;;;;;2;0.8;;;;;;;27.09;52.80078;934.5013;;;;
2023/09/20 11:08:13;;;;;;;2.2;0.9;;;;;;;27.66;49.75781;934.5164;;;;
2023/09/20 11:10:39;;;;;;;1.7;0.8;;;;;;;28.39;47.52051;934.5452;;;;
2023/09/20 11:13:06;;;;;;;0.7;0.6;;;;;;;27.68;47.99023;934.5352;;;;
2023/09/20 11:15:40;;;;;;;0.9;0.9;;;;;;;27.53;51.34473;934.5186;;;;
2023/09/20 11:18:01;;;;;;;0.7;0.7;;;;;;;27.32;49.28125;934.52;;;;
2023/09/20 11:20:27;;;;;;;1;0.9;;;;;;;27.91;49.33398;934.5012;;;;
2023/09/20 11:22:54;;;;;;;1.7;1;;;;;;;28.06;47.81836;934.3758;;;;
2023/09/20 11:25:20;;;;;;;0.9;0.9;;;;;;;27.55;49.19922;934.353;;;;
2023/09/20 11:27:46;;;;;;;0.8;0.8;;;;;;;28.06;48.22168;934.291;;;;
2023/09/20 11:30:12;;;;;;;0.6;0.6;;;;;;;28.74;45.77246;934.25;;;;
2023/09/20 11:32:39;;;;;;;0.9;0.8;;;;;;;29.16;44.63672;934.2128;;;;
2023/09/20 11:35:06;;;;;;;0.7;0.7;;;;;;;29.49;44.6084;934.1769;;;;
2023/09/20 11:37:32;;;;;;;0.7;0.7;;;;;;;29.2;46.91602;934.1351;;;;
2023/09/20 11:39:57;;;;;;;1.6;0.8;;;;;;;28.76;46.60742;934.0428;;;;
2023/09/20 11:42:26;;;;;;;1;0.8;;;;;;;29.28;45.875;934.0219;;;;
2023/09/20 11:44:50;;;;;;;2.2;1.1;;;;;;;29.32;44.41309;933.9406;;;;
2023/09/20 11:47:15;;;;;;;1.2;0.9;;;;;;;29.67;45.22266;933.937;;;;
2023/09/20 11:49:42;;;;;;;0.7;0.7;;;;;;;28.74;48.4375;933.9246;;;;
2023/09/20 11:52:08;;;;;;;1;0.7;;;;;;;28.46;49.64453;933.8969;;;;
2023/09/20 11:54:34;;;;;;;0.8;0.8;;;;;;;28.02;51.0332;933.8961;;;;
2023/09/20 11:56:58;;;;;;;0.7;0.7;;;;;;;27.27;50.56836;933.873;;;;
2023/09/20 11:59:28;;;;;;;1.5;0.8;;;;;;;26.16;56.24023;933.8621;;;;
2023/09/20 12:01:53;;;;;;;0.7;0.7;;;;;;;26.25;55.99121;933.7852;;;;
2023/09/20 12:04:18;;;;;;;1.8;0.9;;;;;;;26.38;55.32129;933.7347;;;;
2023/09/20 12:06:43;;;;;;;2.2;0.9;;;;;;;26.64;54.67871;933.722;;;;
2023/09/20 12:09:09;;;;;;;1;1;;;;;;;26.59;54.79004;933.7422;;;;
2023/09/20 12:11:35;;;;;;;0.6;0.6;;;;;;;26.58;52.31445;933.6934;;;;
2023/09/20 12:13:59;;;;;;;1.8;1;;;;;;;25.95;54.97168;933.7759;;;;
2023/09/20 12:16:25;;;;;;;1.1;0.9;;;;;;;26;57.01172;933.8027;;;;
2023/09/20 12:18:50;;;;;;;0.9;0.8;;;;;;;25.95;57.83398;933.7211;;;;
2023/09/20 12:21:15;;;;;;;1;0.8;;;;;;;26.07;56.1709;933.6255;;;;
2023/09/20 12:23:43;;;;;;;2.1;1;;;;;;;26.05;56.10938;933.5931;;;;
2023/09/20 12:26:09;;;;;;;1.8;1;;;;;;;26.45;54.50195;933.5707;;;;
2023/09/20 12:28:34;;;;;;;1;0.9;;;;;;;26.05;56.36816;933.5696;;;;
2023/09/20 12:31:00;;;;;;;1.4;0.9;;;;;;;26.04;54.46387;933.5219;;;;
2023/09/20 12:33:25;;;;;;;0.7;0.6;;;;;;;26.23;53.33887;933.5347;;;;
2023/09/20 12:35:50;;;;;;;1.5;0.8;;;;;;;26.1;56.82422;933.4836;;;;
2023/09/20 12:38:19;;;;;;;0.8;0.8;;;;;;;26.59;54.83789;933.4105;;;;
2023/09/20 12:40:45;;;;;;;2.3;0.9;;;;;;;26.21;57.5957;933.4044;;;;
2023/09/20 12:43:11;;;;;;;1.1;0.9;;;;;;;25.95;57.38477;933.3931;;;;
2023/09/20 12:45:36;;;;;;;1.2;0.7;;;;;;;25.9;57.20117;933.3641;;;;
2023/09/20 12:50:12;;;;;;;1.1;0.9;;;;;;;25.57;58.375;933.3334;;;;
2023/09/20 12:52:33;;;;;;;1.5;0.8;;;;;;;25.81;58.12305;933.3315;;;;
2023/09/20 12:55:00;;;;;;;2.1;0.8;;;;;;;26.08;56.83301;933.2864;;;;
2023/09/20 12:57:25;;;;;;;1.2;0.9;;;;;;;26.2;55.24023;933.2597;;;;
2023/09/20 12:59:57;;;;;;;1.1;1;;;;;;;26.18;58.29004;933.2158;;;;
2023/09/20 13:02:20;;;;;;;2;1;;;;;;;26.26;58.00391;933.2233;;;;
2023/09/20 13:04:49;;;;;;;0.9;0.9;;;;;;;25.99;59.15137;933.2075;;;;
2023/09/20 13:07:12;;;;;;;0.8;0.8;;;;;;;26.12;55.15918;933.2092;;;;
2023/09/20 13:09:37;;;;;;;1.4;1;;;;;;;25.98;58.54688;933.1919;;;;
2023/09/20 13:12:02;;;;;;;1.2;1.1;;;;;;;25.9;57.0459;933.1548;;;;
2023/09/20 13:14:30;;;;;;;1.3;0.9;;;;;;;25.91;56.80078;933.1157;;;;
2023/09/20 13:16:54;;;;;;;0.8;0.8;;;;;;;26.18;57.27246;933.1253;;;;
2023/09/20 13:19:21;;;;;;;1;1;;;;;;;25.97;57.48145;933.1295;;;;
2023/09/20 13:21:46;;;;;;;1.5;0.8;;;;;;;25.91;58.4082;933.087;;;;
2023/09/20 13:24:12;;;;;;;1.2;1.1;;;;;;;25.76;58.62598;933.1272;;;;
2023/09/20 13:26:38;;;;;;;1.5;1.2;;;;;;;25.7;59.91797;933.0883;;;;
2023/09/20 13:29:04;;;;;;;1.1;1;;;;;;;26.06;59.52832;933.0516;;;;
2023/09/20 13:31:29;;;;;;;1;0.8;;;;;;;26.25;57.17383;932.9803;;;;
2023/09/20 13:33:56;;;;;;;0.9;0.9;;;;;;;26.32;56.07227;933.0022;;;;
2023/09/20 13:36:21;;;;;;;1.1;1;;;;;;;26.23;56.04785;932.9522;;;;
2023/09/20 13:38:46;;;;;;;0.8;0.8;;;;;;;26.01;57.60547;933.0178;;;;
2023/09/20 13:41:13;;;;;;;1;1;;;;;;;25.96;56.96094;932.8979;;;;
2023/09/20 13:43:37;;;;;;;1.7;1;;;;;;;25.98;55.5918;932.9148;;;;
2023/09/20 13:46:02;;;;;;;1.7;1.1;;;;;;;25.93;56.27051;932.8705;;;;
2023/09/20 13:48:34;;;;;;;0.9;0.9;;;;;;;25.93;55.76172;932.8427;;;;
2023/09/20 13:50:59;;;;;;;1.5;0.9;;;;;;;25.93;56.02246;932.8019;;;;
2023/09/20 13:53:22;;;;;;;1.4;1;;;;;;;25.97;57.70605;932.8119;;;;
2023/09/20 13:55:48;;;;;;;0.9;0.9;;;;;;;26.12;56.47168;932.7313;;;;
2023/09/20 13:58:13;;;;;;;1.5;1;;;;;;;26.45;55.36523;932.6797;;;;
2023/09/20 14:00:39;;;;;;;1.6;1;;;;;;;26.57;54.13672;932.6519;;;;
2023/09/20 14:03:05;;;;;;;1.1;1;;;;;;;26.8;53.83203;932.5746;;;;
2023/09/20 14:05:29;;;;;;;1.2;1;;;;;;;26.86;53.70996;932.5103;;;;
2023/09/20 14:07:56;;;;;;;3.2;1;;;;;;;26.96;52.98633;932.4925;;;;
2023/09/20 14:10:19;;;;;;;2.5;1;;;;;;;26.95;53.01074;932.4669;;;;
2023/09/20 14:12:45;;;;;;;1.3;1;;;;;;;26.91;54.43848;932.4483;;;;
2023/09/20 14:15:12;;;;;;;1.2;1.1;;;;;;;26.57;56.88379;932.3775;;;;
2023/09/20 14:17:35;;;;;;;1.1;1;;;;;;;26.63;56.60645;932.308;;;;
2023/09/20 14:20:08;;;;;;;1.1;1;;;;;;;26.39;56.83691;932.2734;;;;
2023/09/20 14:22:28;;;;;;;1.4;1.2;;;;;;;26.14;58.09473;932.2531;;;;
2023/09/20 14:24:53;;;;;;;2.8;1.2;;;;;;;25.87;58.30762;932.2491;;;;
2023/09/20 14:27:18;;;;;;;1.5;1.1;;;;;;;25.92;57.30957;932.2252;;;;
2023/09/20 14:29:45;;;;;;;2.8;1.1;;;;;;;25.97;58.00195;932.2603;;;;
2023/09/20 14:32:10;;;;;;;1.4;1.2;;;;;;;26.16;56.38281;932.1739;;;;
2023/09/20 14:34:35;;;;;;;1;0.8;;;;;;;26.3;57.16895;932.1384;;;;
2023/09/20 14:37:00;;;;;;;1.3;1;;;;;;;26.6;55.94043;932.1008;;;;
2023/09/20 14:39:26;;;;;;;0.8;0.8;;;;;;;26.45;55.85059;932.0471;;;;
2023/09/20 14:41:51;;;;;;;1.3;1;;;;;;;26.58;55.0498;932.0577;;;;
2023/09/20 14:44:17;;;;;;;1.8;1;;;;;;;26.61;54.50977;932.0254;;;;
2023/09/20 14:46:42;;;;;;;1.6;1.2;;;;;;;26.44;54.68848;932.03;;;;
2023/09/20 14:49:11;;;;;;;2.3;1.1;;;;;;;26.52;54.87598;931.9906;;;;
2023/09/20 14:51:34;;;;;;;1.9;1;;;;;;;26.52;55.62305;931.9697;;;;
2023/09/20 14:54:03;;;;;;;1;0.9;;;;;;;26.56;54.83301;931.9554;;;;
2023/09/20 14:56:27;;;;;;;1.5;1;;;;;;;26.6;54.82813;931.9846;;;;
2023/09/20 14:58:55;;;;;;;1.5;1.3;;;;;;;26.4;56.31738;931.9166;;;;
2023/09/20 15:01:19;;;;;;;2;1.1;;;;;;;26.46;55.89941;931.9131;;;;
2023/09/20 15:03:45;;;;;;;1.7;1;;;;;;;26.45;55.75586;931.8592;;;;
2023/09/20 15:06:10;;;;;;;1.3;1.1;;;;;;;26.22;55.92871;931.8636;;;;
2023/09/20 15:08:35;;;;;;;1.3;1;;;;;;;26.1;56.58789;931.8884;;;;
2023/09/20 15:11:00;;;;;;;1.5;1;;;;;;;25.96;57.74023;931.9235;;;;